Time;durP1;ratioP1;P1;durP2;ratioP2;P2;SDS_P1;SDS_P2;PMS_P1;PMS_P2;Temp;Humidity;BMP_temperature;BMP_pressure;BME280_temperature;BME280_humidity;BME280_pressure;Samples;Min_cycle;Max_cycle;Signal;HPM_P1;HPM_P2
2023/03/19 00:01:05;;;;;;;6.13;5.50;;;;;;;12.89;55.50;99258.75;6160152;23;20152;-79
2023/03/19 00:03:30;;;;;;;7.40;6.43;;;;;;;12.83;55.60;99265.34;6157172;23;20174;-79
2023/03/19 00:05:56;;;;;;;11.33;6.47;;;;;;;12.78;55.88;99270.16;6156040;23;20163;-79
2023/03/19 00:08:21;;;;;;;6.10;5.30;;;;;;;12.73;55.77;99270.50;6151194;23;20475;-79
2023/03/19 00:10:48;;;;;;;10.70;7.30;;;;;;;12.70;55.90;99276.00;6147820;23;20159;-79
2023/03/19 00:13:13;;;;;;;7.55;4.90;;;;;;;12.70;55.91;99277.81;6147524;23;20206;-80
2023/03/19 00:15:38;;;;;;;6.33;5.57;;;;;;;12.72;55.83;99278.50;6149493;23;20163;-80
2023/03/19 00:18:05;;;;;;;5.70;4.43;;;;;;;12.74;55.82;99274.78;6150680;23;20163;-79
2023/03/19 00:20:30;;;;;;;6.00;5.40;;;;;;;12.79;55.59;99283.19;6152350;23;20183;-79
2023/03/19 00:22:56;;;;;;;6.53;4.20;;;;;;;12.81;55.50;99283.91;6153041;23;20195;-79
2023/03/19 00:25:22;;;;;;;5.57;4.60;;;;;;;12.84;55.30;99285.47;6153896;23;20246;-79
2023/03/19 00:27:47;;;;;;;7.60;4.03;;;;;;;12.88;55.15;99291.34;6156348;23;20657;-79
2023/03/19 00:30:13;;;;;;;6.20;4.43;;;;;;;12.91;54.43;99289.31;6154154;23;20155;-79
2023/03/19 00:32:39;;;;;;;4.30;3.40;;;;;;;12.94;54.03;99296.97;6123187;23;20167;-79
2023/03/19 00:35:05;;;;;;;5.57;3.20;;;;;;;12.99;53.24;99302.72;6124189;23;20976;-79
2023/03/19 00:37:31;;;;;;;3.33;2.60;;;;;;;13.05;52.63;99307.50;6150403;23;20163;-79
2023/03/19 00:39:56;;;;;;;4.40;3.10;;;;;;;13.11;52.08;99300.09;6149667;23;20281;-79
2023/03/19 00:42:22;;;;;;;5.07;3.07;;;;;;;13.16;51.45;99316.38;6148785;23;20181;-79
2023/03/19 00:44:47;;;;;;;4.90;2.97;;;;;;;13.20;50.96;99315.16;6149921;23;20166;-79
2023/03/19 00:47:13;;;;;;;3.43;2.60;;;;;;;13.24;50.84;99316.63;6123535;23;20171;-79
2023/03/19 00:49:38;;;;;;;4.73;2.93;;;;;;;13.26;50.21;99312.94;6125212;23;20616;-79
2023/03/19 00:52:04;;;;;;;5.60;3.57;;;;;;;13.26;50.10;99315.56;6126438;23;20175;-80
2023/03/19 00:54:31;;;;;;;3.33;2.80;;;;;;;13.29;50.06;99319.75;6153568;23;20223;-80
2023/03/19 00:56:56;;;;;;;4.22;2.60;;;;;;;13.31;50.18;99316.97;6125202;23;20159;-79
2023/03/19 00:59:24;;;;;;;4.40;3.07;;;;;;;13.30;50.59;99324.06;6149684;23;20225;-79
2023/03/19 01:01:50;;;;;;;2.75;2.00;;;;;;;13.31;50.75;99312.53;6149977;23;20175;-80
2023/03/19 01:04:16;;;;;;;2.00;1.77;;;;;;;13.34;50.87;99306.19;6122937;23;20139;-79
2023/03/19 01:06:43;;;;;;;3.25;1.70;;;;;;;13.36;51.40;99314.81;6123861;23;20159;-79
2023/03/19 01:09:09;;;;;;;4.50;3.28;;;;;;;13.36;51.73;99310.38;6150722;23;20622;-80
2023/03/19 01:11:35;;;;;;;4.05;3.30;;;;;;;13.38;52.08;99307.63;6148156;23;20202;-80
2023/03/19 01:14:01;;;;;;;3.95;2.20;;;;;;;13.38;52.83;99308.47;6121656;23;20166;-80
2023/03/19 01:16:28;;;;;;;5.35;1.90;;;;;;;13.35;53.86;99306.06;6122765;23;20167;-80
2023/03/19 01:18:53;;;;;;;2.43;2.03;;;;;;;13.30;54.46;99307.41;6122410;23;20210;-82
2023/03/19 01:21:20;;;;;;;3.70;2.10;;;;;;;13.22;55.09;99294.78;6122917;23;20422;-81
2023/03/19 01:23:47;;;;;;;2.60;2.30;;;;;;;13.15;55.36;99288.31;6126103;23;20163;-83
2023/03/19 01:26:13;;;;;;;3.30;2.20;;;;;;;13.05;56.51;99296.97;6093226;23;20614;-82
2023/03/19 01:28:39;;;;;;;2.38;1.90;;;;;;;12.95;57.12;99288.09;6096650;23;20219;-83
2023/03/19 01:31:06;;;;;;;3.07;2.30;;;;;;;12.89;57.76;99285.94;6098331;23;20168;-82
2023/03/19 01:33:38;;;;;;;4.05;2.33;;;;;;;12.81;58.20;99281.28;6123687;23;20164;-83
2023/03/19 01:36:19;;;;;;;2.80;1.95;;;;;;;12.75;58.22;99280.94;6123321;23;20492;-82
2023/03/19 01:39:11;;;;;;;4.45;1.48;;;;;;;12.68;57.98;99282.34;6115080;23;20196;-81
2023/03/19 01:41:37;;;;;;;6.13;2.33;;;;;;;12.65;57.88;99285.22;6096226;23;20184;-81
2023/03/19 01:44:34;;;;;;;5.40;2.28;;;;;;;12.60;57.91;99291.69;6121314;23;20761;-83
2023/03/19 01:47:34;;;;;;;2.53;2.30;;;;;;;12.59;57.90;99294.44;6120660;23;20171;-83
2023/03/19 01:50:40;;;;;;;5.30;3.00;;;;;;;12.60;57.87;99296.94;6113879;23;20191;-81
2023/03/19 01:53:38;;;;;;;2.60;1.95;;;;;;;12.61;57.72;99296.00;5991132;23;20238;-82
2023/03/19 01:56:20;;;;;;;2.55;2.35;;;;;;;12.63;58.07;99288.81;6097000;23;20167;-82
2023/03/19 01:59:02;;;;;;;2.47;1.85;;;;;;;12.64;58.21;99289.66;6123183;23;20199;-82
2023/03/19 02:01:57;;;;;;;4.22;3.20;;;;;;;12.65;58.46;99293.13;6076121;23;20195;-81
2023/03/19 02:04:26;;;;;;;2.90;2.30;;;;;;;12.63;58.93;99291.44;6095452;23;20163;-81
2023/03/19 02:06:54;;;;;;;5.53;3.60;;;;;;;12.62;59.15;99287.13;6096565;23;20156;-82
2023/03/19 02:09:20;;;;;;;4.80;3.53;;;;;;;12.62;59.44;99291.56;6096471;23;20627;-81
2023/03/19 02:11:46;;;;;;;5.17;3.77;;;;;;;12.62;59.66;99289.78;6122322;23;20180;-82
2023/03/19 02:14:12;;;;;;;4.47;3.50;;;;;;;12.62;59.96;99273.97;6095951;23;20174;-81
2023/03/19 02:16:38;;;;;;;4.85;3.65;;;;;;;12.60;60.31;99275.88;6095415;23;20483;-83
2023/03/19 02:19:12;;;;;;;6.43;3.72;;;;;;;12.56;60.53;99279.72;6095161;23;20212;-81
2023/03/19 02:21:37;;;;;;;5.57;3.90;;;;;;;12.50;60.84;99269.66;6122546;23;20195;-81
2023/03/19 02:24:06;;;;;;;7.10;3.87;;;;;;;12.44;61.21;99270.09;6096339;23;20175;-81
2023/03/19 02:26:58;;;;;;;5.55;3.20;;;;;;;12.38;61.47;99274.06;6116601;23;20182;-80
2023/03/19 02:29:24;;;;;;;2.80;2.55;;;;;;;12.36;61.58;99275.13;6119593;23;20164;-81
2023/03/19 02:31:50;;;;;;;3.65;2.70;;;;;;;12.35;61.97;99276.91;6096697;23;20290;-81
2023/03/19 02:34:19;;;;;;;2.47;2.07;;;;;;;12.34;61.92;99280.53;6122287;23;20247;-81
2023/03/19 02:36:58;;;;;;;3.13;2.53;;;;;;;12.28;62.16;99278.34;6121484;23;20160;-82
2023/03/19 02:39:33;;;;;;;8.00;2.70;;;;;;;12.24;62.35;99283.97;6121359;23;20184;-81
2023/03/19 02:42:01;;;;;;;3.53;2.40;;;;;;;12.21;62.64;99285.03;6121601;23;20848;-83
2023/03/19 02:44:28;;;;;;;3.22;2.55;;;;;;;12.18;62.90;99278.22;6095241;23;20171;-80
2023/03/19 02:46:54;;;;;;;8.00;2.90;;;;;;;12.15;62.88;99281.06;6095214;23;20148;-81
2023/03/19 02:49:19;;;;;;;3.20;2.90;;;;;;;12.13;63.23;99287.41;6094603;23;20596;-83
2023/03/19 02:51:45;;;;;;;3.30;2.80;;;;;;;12.11;63.32;99284.06;6121409;23;20176;-81
2023/03/19 02:54:10;;;;;;;4.23;2.67;;;;;;;12.11;63.72;99279.63;6130730;23;20220;-81
2023/03/19 02:56:36;;;;;;;2.93;2.23;;;;;;;12.08;63.87;99279.84;6104633;23;20243;-82
2023/03/19 02:59:01;;;;;;;5.07;3.17;;;;;;;12.06;63.93;99283.56;6129742;23;20530;-82
2023/03/19 03:01:28;;;;;;;2.80;2.50;;;;;;;12.01;64.13;99288.31;6126493;23;20184;-82
2023/03/19 03:03:54;;;;;;;5.35;2.50;;;;;;;11.95;64.21;99286.97;6099780;23;20183;-82
2023/03/19 03:06:21;;;;;;;3.77;2.77;;;;;;;11.93;64.11;99284.44;5485880;23;10000764;-81
2023/03/19 03:08:47;;;;;;;3.90;2.93;;;;;;;11.93;64.16;99286.25;6159159;23;20418;-81
2023/03/19 03:11:12;;;;;;;4.33;2.60;;;;;;;11.91;64.15;99285.56;6159238;23;20151;-82
2023/03/19 03:13:38;;;;;;;3.60;2.80;;;;;;;11.91;64.39;99286.38;6158476;23;20210;-82
2023/03/19 03:16:03;;;;;;;3.17;2.80;;;;;;;11.90;64.41;99286.47;6134166;23;20159;-81
2023/03/19 03:18:29;;;;;;;4.93;3.10;;;;;;;11.91;64.70;99289.00;6160596;23;20211;-81
2023/03/19 03:20:54;;;;;;;4.93;3.07;;;;;;;11.87;64.80;99287.56;6134746;23;20197;-82
2023/03/19 03:23:20;;;;;;;2.80;2.17;;;;;;;11.83;64.95;99290.50;6161272;23;20258;-81
2023/03/19 03:25:52;;;;;;;5.30;2.60;;;;;;;11.78;65.21;99288.22;6112056;23;20242;-82
2023/03/19 03:28:18;;;;;;;3.38;2.75;;;;;;;11.71;65.53;99289.59;6161360;23;20735;-83
2023/03/19 03:30:44;;;;;;;8.70;2.53;;;;;;;11.60;66.08;99290.38;6135712;23;20167;-82
2023/03/19 03:33:10;;;;;;;3.70;2.50;;;;;;;11.50;66.49;99294.63;6162384;23;20386;-82
2023/03/19 03:35:35;;;;;;;2.90;2.70;;;;;;;11.43;66.50;99290.78;6136208;23;20243;-82
2023/03/19 03:38:03;;;;;;;7.13;3.03;;;;;;;11.40;66.35;99293.63;6163238;23;20163;-81
2023/03/19 03:40:28;;;;;;;2.90;2.70;;;;;;;11.39;66.59;99298.03;6133610;23;20195;-81
2023/03/19 03:42:54;;;;;;;3.95;3.10;;;;;;;11.41;67.61;99295.31;6154626;23;20375;-81
2023/03/19 03:45:19;;;;;;;4.50;3.10;;;;;;;11.41;67.82;99300.56;6131899;23;20166;-81
2023/03/19 03:47:45;;;;;;;5.60;2.83;;;;;;;11.41;67.87;99308.47;6162858;23;20164;-81
2023/03/19 03:50:11;;;;;;;4.47;3.10;;;;;;;11.44;67.47;99305.59;6137698;23;20167;-82
2023/03/19 03:52:38;;;;;;;3.00;2.65;;;;;;;11.47;67.45;99308.00;6136997;23;20183;-82
2023/03/19 03:55:04;;;;;;;3.45;3.05;;;;;;;11.49;67.18;99311.38;6136365;23;20170;-82
2023/03/19 03:57:30;;;;;;;9.65;3.65;;;;;;;11.50;67.12;99306.00;6135737;23;20167;-83
2023/03/19 03:59:56;;;;;;;3.80;2.60;;;;;;;11.54;67.03;99316.31;6136525;23;20215;-82
2023/03/19 04:02:22;;;;;;;4.80;2.45;;;;;;;11.56;66.80;99315.25;6137471;23;20152;-81
2023/03/19 04:04:47;;;;;;;5.20;2.90;;;;;;;11.59;66.67;99329.97;6137943;23;20158;-81
2023/03/19 04:07:14;;;;;;;2.75;2.47;;;;;;;11.57;66.76;99330.06;6137289;23;20390;-82
2023/03/19 04:09:45;;;;;;;3.88;2.90;;;;;;;11.53;66.86;99333.88;6137111;23;20234;-82
2023/03/19 04:12:12;;;;;;;4.10;2.93;;;;;;;11.48;66.73;99339.47;6137397;23;20215;-82
2023/03/19 04:14:38;;;;;;;4.85;2.13;;;;;;;11.46;67.04;99330.00;6137905;23;20214;-81
2023/03/19 04:17:04;;;;;;;3.63;2.40;;;;;;;11.41;67.10;99334.75;6162204;23;20159;-82
2023/03/19 04:19:30;;;;;;;2.85;2.65;;;;;;;11.37;67.07;99333.28;6135881;23;20187;-82
2023/03/19 04:21:56;;;;;;;6.20;2.85;;;;;;;11.33;66.81;99332.66;6151674;23;20186;-80
2023/03/19 04:24:22;;;;;;;4.97;2.35;;;;;;;11.33;67.13;99339.72;6096166;23;20175;-78
2023/03/19 04:26:48;;;;;;;4.30;2.50;;;;;;;11.36;67.21;99336.88;6103313;23;20213;-78
2023/03/19 04:29:15;;;;;;;2.95;2.65;;;;;;;11.40;66.98;99338.34;6142738;23;20394;-77
2023/03/19 04:31:41;;;;;;;3.20;2.40;;;;;;;11.44;66.63;99338.00;6119641;23;20171;-80
2023/03/19 04:34:06;;;;;;;2.97;2.17;;;;;;;11.47;66.98;99342.19;6108074;23;20168;-77
2023/03/19 04:36:32;;;;;;;2.57;2.37;;;;;;;11.50;66.49;99342.84;6144560;23;20286;-79
2023/03/19 04:38:57;;;;;;;2.57;2.20;;;;;;;11.54;66.55;99340.81;6119734;23;20823;-80
2023/03/19 04:41:23;;;;;;;4.50;2.27;;;;;;;11.57;66.58;99343.22;6120645;23;20234;-79
2023/03/19 04:44:07;;;;;;;2.53;1.70;;;;;;;11.59;66.25;99335.22;6120260;23;20160;-82
2023/03/19 04:46:34;;;;;;;3.78;2.70;;;;;;;11.62;66.38;99329.75;6120009;23;20593;-78
2023/03/19 04:49:00;;;;;;;3.70;3.03;;;;;;;11.63;66.37;99340.13;6119850;23;20163;-79
2023/03/19 04:51:28;;;;;;;3.53;2.83;;;;;;;11.65;66.26;99346.13;6119911;23;20167;-80
2023/03/19 04:53:53;;;;;;;4.73;4.30;;;;;;;11.67;66.00;99332.88;6120091;23;20462;-78
2023/03/19 04:56:19;;;;;;;3.10;2.80;;;;;;;11.71;65.76;99340.44;6120158;23;20159;-78
2023/03/19 04:58:45;;;;;;;5.30;3.17;;;;;;;11.76;65.06;99334.00;6145942;23;20186;-79
2023/03/19 05:01:11;;;;;;;3.37;3.07;;;;;;;11.81;64.61;99345.03;6118729;23;20425;-77
2023/03/19 05:03:58;;;;;;;5.35;2.55;;;;;;;11.86;63.95;99337.69;6118308;23;20290;-81
2023/03/19 05:06:25;;;;;;;3.45;2.72;;;;;;;11.90;63.67;99341.75;6141470;23;20162;-78
2023/03/19 05:08:51;;;;;;;5.20;2.33;;;;;;;11.93;63.06;99336.25;6119864;23;20166;-77
2023/03/19 05:11:18;;;;;;;3.08;2.30;;;;;;;11.96;62.46;99330.75;6120982;23;20238;-78
2023/03/19 05:13:56;;;;;;;2.15;1.95;;;;;;;12.00;62.32;99345.41;6120008;23;20175;-77
2023/03/19 05:16:22;;;;;;;3.10;1.80;;;;;;;12.01;61.97;99340.97;6119472;23;20574;-78
2023/03/19 05:18:48;;;;;;;2.90;1.50;;;;;;;12.02;61.58;99340.88;6145247;23;20158;-79
2023/03/19 05:21:14;;;;;;;1.95;1.80;;;;;;;12.01;61.41;99349.69;6119228;23;20171;-80
2023/03/19 05:23:41;;;;;;;2.03;1.50;;;;;;;12.00;61.16;99349.81;6119142;23;20199;-78
2023/03/19 05:26:08;;;;;;;3.08;1.90;;;;;;;12.00;60.80;99352.47;6120429;23;20174;-80
2023/03/19 05:28:53;;;;;;;2.35;1.98;;;;;;;11.99;60.52;99356.03;6145236;23;20194;-80
2023/03/19 05:31:25;;;;;;;2.10;1.90;;;;;;;11.99;60.14;99351.63;6120272;23;20198;-79
2023/03/19 05:33:52;;;;;;;2.38;1.50;;;;;;;12.00;59.71;99345.41;6119507;23;20202;-79
2023/03/19 05:36:18;;;;;;;2.50;1.63;;;;;;;12.03;59.29;99346.97;6119107;23;20160;-78
2023/03/19 05:38:55;;;;;;;3.25;2.63;;;;;;;12.05;58.57;99348.53;6118803;23;20163;-78
2023/03/19 05:41:30;;;;;;;3.53;1.92;;;;;;;12.09;57.99;99354.41;6116683;23;20549;-78
2023/03/19 05:44:00;;;;;;;3.67;1.73;;;;;;;12.11;57.81;99358.59;6117720;23;20259;-78
2023/03/19 05:46:40;;;;;;;1.80;1.70;;;;;;;12.13;57.50;99353.22;6119192;23;20172;-79
2023/03/19 05:49:06;;;;;;;1.70;1.60;;;;;;;12.13;57.19;99351.44;6118358;23;20166;-78
2023/03/19 05:51:32;;;;;;;2.80;1.60;;;;;;;12.13;57.20;99353.22;6118986;23;20163;-77
2023/03/19 05:53:57;;;;;;;1.97;1.57;;;;;;;12.12;56.98;99355.03;6119558;23;20202;-80
2023/03/19 05:56:29;;;;;;;3.72;1.92;;;;;;;12.13;56.73;99348.81;6118708;23;20160;-78
2023/03/19 05:59:09;;;;;;;2.10;1.50;;;;;;;12.13;56.50;99355.88;6119128;23;20588;-79
2023/03/19 06:01:39;;;;;;;1.90;1.80;;;;;;;12.11;56.39;99360.41;6118981;23;20221;-78
2023/03/19 06:04:05;;;;;;;2.03;1.50;;;;;;;12.10;55.93;99354.31;6117792;23;20151;-81
2023/03/19 06:06:31;;;;;;;3.28;2.20;;;;;;;12.09;55.89;99349.97;6118286;23;20163;-81
2023/03/19 06:08:56;;;;;;;2.57;2.30;;;;;;;12.06;55.64;99352.84;6119045;23;20561;-81
2023/03/19 06:11:35;;;;;;;5.47;3.30;;;;;;;12.05;55.85;99355.59;6118519;23;20666;-78
2023/03/19 06:14:23;;;;;;;4.80;3.55;;;;;;;12.03;55.78;99371.50;6122929;23;20174;-78
2023/03/19 06:17:05;;;;;;;4.38;3.00;;;;;;;12.02;55.69;99375.09;6118341;23;20201;-79
2023/03/19 06:19:31;;;;;;;3.10;2.63;;;;;;;12.00;55.62;99374.34;6119446;23;20187;-81
2023/03/19 06:21:57;;;;;;;4.07;2.33;;;;;;;11.99;55.56;99371.81;6117476;23;20174;-78
2023/03/19 06:24:22;;;;;;;5.00;2.50;;;;;;;11.97;55.54;99358.78;6143467;23;20222;-79
2023/03/19 06:26:48;;;;;;;3.20;2.53;;;;;;;11.96;55.58;99375.50;6142276;23;20498;-78
2023/03/19 06:29:13;;;;;;;5.40;3.10;;;;;;;11.97;55.63;99371.94;6118042;23;20171;-79
2023/03/19 06:31:42;;;;;;;5.60;3.65;;;;;;;11.98;55.57;99373.63;6116560;23;20448;-79
2023/03/19 06:34:16;;;;;;;3.83;2.85;;;;;;;12.01;55.57;99383.91;6115821;23;20658;-78
2023/03/19 06:36:43;;;;;;;4.07;3.67;;;;;;;12.07;55.49;99382.63;6118575;23;20159;-80
2023/03/19 06:39:10;;;;;;;5.38;2.97;;;;;;;12.10;55.36;99383.25;6118236;23;20191;-78
2023/03/19 06:41:36;;;;;;;2.73;2.03;;;;;;;12.16;55.20;99380.16;6145874;23;20171;-79
2023/03/19 06:44:12;;;;;;;2.95;2.40;;;;;;;12.26;54.93;99388.25;6118539;23;20537;-79
2023/03/19 06:46:37;;;;;;;3.13;2.30;;;;;;;12.39;54.16;99393.41;6145150;23;20392;-79
2023/03/19 06:49:03;;;;;;;2.97;2.40;;;;;;;12.55;53.88;99395.75;6144149;23;20246;-79
2023/03/19 06:51:28;;;;;;;3.10;2.23;;;;;;;12.71;53.66;99383.09;6145426;23;20167;-79
2023/03/19 06:53:53;;;;;;;3.40;2.03;;;;;;;12.86;53.44;99391.63;6141787;23;20257;-80
2023/03/19 06:56:19;;;;;;;5.03;3.60;;;;;;;12.99;53.27;99397.66;6140098;23;20190;-80
2023/03/19 06:58:45;;;;;;;4.15;2.30;;;;;;;13.11;53.12;99392.38;6139107;23;20247;-78
2023/03/19 07:01:10;;;;;;;2.40;1.90;;;;;;;13.19;53.00;99395.25;6138791;23;20482;-79
2023/03/19 07:03:36;;;;;;;5.33;3.00;;;;;;;13.24;52.65;99396.56;6140065;23;20582;-80
2023/03/19 07:06:01;;;;;;;4.30;2.10;;;;;;;13.35;52.95;99393.13;6137219;23;20155;-79
2023/03/19 07:08:28;;;;;;;3.53;2.80;;;;;;;13.45;52.67;99394.09;6140171;23;20242;-81
2023/03/19 07:11:02;;;;;;;2.15;1.85;;;;;;;13.58;52.47;99399.22;6138596;23;20151;-79
2023/03/19 07:13:28;;;;;;;2.45;2.10;;;;;;;13.69;52.44;99401.84;6139519;23;20204;-79
2023/03/19 07:15:53;;;;;;;2.13;1.47;;;;;;;13.76;52.32;99398.72;6140423;23;20159;-80
2023/03/19 07:18:18;;;;;;;4.10;2.00;;;;;;;13.83;52.20;99406.03;6142818;23;20159;-79
2023/03/19 07:20:44;;;;;;;3.00;1.93;;;;;;;13.91;51.71;99414.16;6138959;23;20487;-79
2023/03/19 07:23:10;;;;;;;3.33;2.50;;;;;;;14.02;51.61;99413.31;6139556;23;20205;-79
2023/03/19 07:25:35;;;;;;;2.70;2.20;;;;;;;14.14;51.18;99408.81;6139471;23;20390;-79
2023/03/19 07:28:01;;;;;;;2.60;1.77;;;;;;;14.25;50.75;99408.78;6138938;23;20163;-79
2023/03/19 07:30:26;;;;;;;2.00;1.90;;;;;;;14.38;50.40;99403.31;6143505;23;20183;-79
2023/03/19 07:32:52;;;;;;;2.60;2.40;;;;;;;14.53;49.98;99414.47;6139664;23;20200;-79
2023/03/19 07:35:17;;;;;;;3.93;1.97;;;;;;;14.66;49.39;99411.63;6138136;23;20681;-79
2023/03/19 07:37:43;;;;;;;3.50;2.90;;;;;;;14.82;48.33;99412.88;6137489;23;20454;-79
2023/03/19 07:40:09;;;;;;;5.13;2.27;;;;;;;14.91;47.68;99415.72;6138207;23;20549;-79
2023/03/19 07:42:35;;;;;;;3.55;2.65;;;;;;;14.97;47.27;99415.19;6138898;23;20285;-79
2023/03/19 07:45:02;;;;;;;3.38;2.03;;;;;;;15.02;46.48;99419.09;6138212;23;20177;-79
2023/03/19 07:47:28;;;;;;;4.35;3.67;;;;;;;15.09;46.45;99424.69;6137660;23;20221;-79
2023/03/19 07:49:54;;;;;;;5.25;2.78;;;;;;;15.21;46.28;99423.66;6137963;23;20495;-79
2023/03/19 07:52:20;;;;;;;3.43;2.60;;;;;;;15.34;46.03;99430.53;6136499;23;20179;-78
2023/03/19 07:54:45;;;;;;;3.90;2.60;;;;;;;15.47;45.93;99428.50;6135709;23;20784;-79
2023/03/19 07:57:11;;;;;;;3.93;2.43;;;;;;;15.59;45.75;99440.69;6136421;23;20172;-78
2023/03/19 07:59:36;;;;;;;8.53;2.43;;;;;;;15.66;45.76;99433.88;6133778;23;20262;-79
2023/03/19 08:02:02;;;;;;;3.50;2.03;;;;;;;15.72;45.61;99432.53;6136193;23;20174;-80
2023/03/19 08:04:27;;;;;;;2.83;2.27;;;;;;;15.82;45.28;99421.97;6109254;23;20139;-79
2023/03/19 08:06:52;;;;;;;6.30;2.50;;;;;;;16.20;44.97;99423.00;6132969;23;20163;-78
2023/03/19 08:09:18;;;;;;;4.13;2.57;;;;;;;16.75;43.55;99421.47;6137308;23;20256;-79
2023/03/19 08:11:43;;;;;;;2.10;1.90;;;;;;;17.32;42.44;99424.16;6134326;23;20149;-79
2023/03/19 08:14:09;;;;;;;3.40;2.57;;;;;;;17.74;41.73;99422.84;6136374;23;20959;-79
2023/03/19 08:16:34;;;;;;;3.80;2.97;;;;;;;18.33;41.04;99410.88;6137173;23;20168;-79
2023/03/19 08:19:01;;;;;;;2.47;2.27;;;;;;;18.99;39.60;99421.09;6136017;23;20250;-79
2023/03/19 08:21:26;;;;;;;3.77;2.47;;;;;;;19.37;38.66;99416.31;6112985;23;20202;-79
2023/03/19 08:23:52;;;;;;;2.63;2.03;;;;;;;19.64;38.09;99398.47;6136523;23;20533;-79
2023/03/19 08:26:17;;;;;;;3.40;2.50;;;;;;;19.76;37.46;99415.00;6111903;23;20167;-81
2023/03/19 08:28:43;;;;;;;4.30;2.57;;;;;;;19.66;37.44;99413.31;6138814;23;20270;-80
2023/03/19 08:31:09;;;;;;;1.93;1.73;;;;;;;19.47;37.93;99408.22;6136489;23;20162;-78
2023/03/19 08:33:36;;;;;;;3.50;2.40;;;;;;;19.27;38.52;99406.78;6137419;23;20175;-79
2023/03/19 08:36:19;;;;;;;4.57;2.73;;;;;;;19.10;38.30;99400.53;6139068;23;20469;-76
2023/03/19 08:38:45;;;;;;;5.10;2.27;;;;;;;19.07;38.57;99407.00;6138395;23;20397;-76
2023/03/19 08:41:11;;;;;;;2.50;2.03;;;;;;;19.09;38.49;99412.16;6137017;23;20469;-77
2023/03/19 08:43:37;;;;;;;3.27;2.00;;;;;;;19.13;38.47;99416.19;6136403;23;20179;-77
2023/03/19 08:46:03;;;;;;;4.83;2.23;;;;;;;19.09;38.58;99405.03;6139516;23;21085;-77
2023/03/19 08:48:29;;;;;;;3.80;2.37;;;;;;;19.27;37.81;99412.09;6137800;23;20182;-76
2023/03/19 08:50:56;;;;;;;2.20;2.00;;;;;;;19.52;37.59;99418.38;6138842;23;20409;-79
2023/03/19 08:53:22;;;;;;;2.40;2.10;;;;;;;19.70;37.31;99424.47;6138987;23;20410;-76
2023/03/19 08:55:52;;;;;;;4.50;2.33;;;;;;;19.73;37.38;99415.34;6137838;23;20440;-76
2023/03/19 08:58:18;;;;;;;3.80;2.60;;;;;;;19.85;36.84;99414.06;6138156;23;20394;-79
2023/03/19 09:00:43;;;;;;;3.97;2.60;;;;;;;20.08;36.65;99414.25;6137251;23;20769;-76
2023/03/19 09:03:08;;;;;;;3.33;2.20;;;;;;;20.13;36.46;99416.44;6137842;23;20206;-78
2023/03/19 09:05:34;;;;;;;4.80;1.87;;;;;;;19.96;36.80;99419.09;6139660;23;20837;-78
2023/03/19 09:08:00;;;;;;;4.07;2.33;;;;;;;19.61;37.35;99426.25;6138329;23;20171;-79
2023/03/19 09:10:26;;;;;;;2.60;2.10;;;;;;;19.30;37.83;99433.09;6137864;23;20379;-81
2023/03/19 09:12:51;;;;;;;3.53;2.33;;;;;;;18.98;38.42;99440.72;6147265;23;20203;-80
2023/03/19 09:15:17;;;;;;;2.63;2.43;;;;;;;18.95;38.92;99434.84;6142285;23;20182;-79
2023/03/19 09:17:42;;;;;;;2.37;2.17;;;;;;;19.00;38.96;99435.22;6142993;23;20474;-79
2023/03/19 09:20:09;;;;;;;3.37;2.47;;;;;;;18.99;39.18;99431.72;6142314;23;20187;-80
2023/03/19 09:22:34;;;;;;;2.20;1.93;;;;;;;18.85;39.62;99432.31;6145224;23;20206;-79
2023/03/19 09:25:00;;;;;;;4.20;2.07;;;;;;;18.62;40.05;99439.06;6147390;23;20474;-80
2023/03/19 09:27:26;;;;;;;5.33;1.90;;;;;;;18.33;40.62;99445.44;6145075;23;20159;-79
2023/03/19 09:29:51;;;;;;;3.17;2.10;;;;;;;18.09;41.20;99443.38;6144516;23;20158;-80
2023/03/19 09:32:16;;;;;;;3.20;2.00;;;;;;;18.00;41.76;99438.97;6141209;23;20419;-80
2023/03/19 09:34:42;;;;;;;2.87;2.37;;;;;;;17.95;41.80;99446.53;6141313;23;20692;-79
2023/03/19 09:37:10;;;;;;;2.50;1.93;;;;;;;17.96;42.00;99449.06;6142430;23;20731;-80
2023/03/19 09:39:36;;;;;;;3.47;3.17;;;;;;;17.97;42.22;99441.91;6141959;23;20183;-81
2023/03/19 09:42:29;;;;;;;2.33;2.13;;;;;;;17.81;42.29;99451.38;6141474;23;20420;-81
2023/03/19 09:44:55;;;;;;;5.93;2.77;;;;;;;17.59;42.74;99452.56;6145186;23;20375;-80
2023/03/19 09:47:35;;;;;;;4.17;2.03;;;;;;;17.48;43.27;99460.72;6144201;23;20387;-81
2023/03/19 09:50:12;;;;;;;5.90;1.93;;;;;;;17.35;43.45;99453.06;6113623;23;20614;-79
2023/03/19 09:52:45;;;;;;;3.33;2.60;;;;;;;17.21;43.80;99461.50;6145354;23;20418;-79
2023/03/19 09:55:23;;;;;;;3.77;2.43;;;;;;;17.19;43.88;99448.34;6143438;23;20386;-79
2023/03/19 09:57:50;;;;;;;2.80;2.00;;;;;;;17.27;43.83;99450.28;6142172;23;20402;-80
2023/03/19 10:00:23;;;;;;;4.53;2.90;;;;;;;17.37;43.66;99452.94;6144718;23;20434;-78
2023/03/19 10:02:55;;;;;;;3.50;2.27;;;;;;;17.44;43.55;99449.56;6144723;23;21094;-78
2023/03/19 10:05:42;;;;;;;2.40;2.20;;;;;;;17.47;43.65;99449.25;6144789;23;20415;-78
2023/03/19 10:08:30;;;;;;;4.13;2.43;;;;;;;17.54;43.46;99457.47;6145019;23;20489;-80
2023/03/19 10:11:06;;;;;;;2.77;2.60;;;;;;;17.58;43.38;99455.34;6144635;23;20733;-80
2023/03/19 10:14:05;;;;;;;3.10;2.07;;;;;;;17.52;43.86;99454.13;6144882;23;20422;-79
2023/03/19 10:16:31;;;;;;;3.60;2.10;;;;;;;17.43;43.81;99450.53;6143909;23;20905;-79
2023/03/19 10:19:03;;;;;;;4.57;2.73;;;;;;;17.40;44.14;99455.28;6143717;23;20431;-79
2023/03/19 10:21:39;;;;;;;2.40;2.20;;;;;;;17.37;44.37;99468.88;6145024;23;20187;-79
2023/03/19 10:24:12;;;;;;;2.20;1.87;;;;;;;17.29;44.51;99458.97;6144644;23;20819;-79
2023/03/19 10:26:38;;;;;;;2.63;1.77;;;;;;;17.20;44.62;99465.13;6143369;23;20430;-78
2023/03/19 10:29:14;;;;;;;2.90;1.90;;;;;;;17.06;45.16;99463.75;6144222;23;20426;-79
2023/03/19 10:32:03;;;;;;;2.30;1.57;;;;;;;16.97;45.48;99467.28;6144522;23;20589;-78
2023/03/19 10:34:33;;;;;;;2.10;1.50;;;;;;;16.91;45.83;99462.53;6145082;23;20493;-79
2023/03/19 10:37:29;;;;;;;2.77;1.60;;;;;;;16.93;46.22;99466.72;6144355;23;20426;-79
2023/03/19 10:39:57;;;;;;;1.97;1.60;;;;;;;16.96;45.90;99458.47;6144548;23;20445;-79
2023/03/19 10:42:41;;;;;;;2.30;1.43;;;;;;;17.02;46.01;99467.69;6146703;23;20420;-79
2023/03/19 10:45:30;;;;;;;2.43;2.20;;;;;;;17.06;45.97;99458.44;6145930;23;20426;-80
2023/03/19 10:47:57;;;;;;;1.93;1.73;;;;;;;17.09;45.89;99454.66;6145489;23;20417;-79
2023/03/19 10:50:27;;;;;;;1.60;1.43;;;;;;;17.09;45.67;99459.97;6145946;23;20426;-79
2023/03/19 10:53:11;;;;;;;2.50;1.97;;;;;;;17.07;45.74;99460.13;6148311;23;20421;-79
2023/03/19 10:55:37;;;;;;;4.40;2.03;;;;;;;17.09;45.69;99467.94;6146353;23;20414;-79
2023/03/19 10:58:16;;;;;;;3.10;2.47;;;;;;;17.14;45.62;99452.44;6145995;23;20873;-79
2023/03/19 11:00:45;;;;;;;2.70;1.90;;;;;;;17.23;45.40;99456.88;6146238;23;20846;-79
2023/03/19 11:03:39;;;;;;;8.00;3.43;;;;;;;17.29;45.51;99456.31;6145255;23;20469;-78
2023/03/19 11:06:16;;;;;;;2.50;2.07;;;;;;;17.38;45.36;99447.47;6149520;23;20415;-79
2023/03/19 11:08:48;;;;;;;2.47;2.13;;;;;;;17.58;45.00;99455.34;6149649;23;20395;-79
2023/03/19 11:11:43;;;;;;;6.57;2.40;;;;;;;17.78;44.74;99443.66;6150914;23;20391;-79
2023/03/19 11:14:16;;;;;;;2.67;2.47;;;;;;;17.92;44.65;99448.50;6149133;23;20391;-79
2023/03/19 11:17:04;;;;;;;2.43;1.70;;;;;;;17.96;44.60;99446.41;6150311;23;20433;-80
2023/03/19 11:19:33;;;;;;;2.17;1.90;;;;;;;18.02;44.22;99443.13;6149011;23;20497;-80
2023/03/19 11:22:04;;;;;;;1.87;1.70;;;;;;;17.96;44.04;99442.88;6151007;23;20429;-79
2023/03/19 11:24:36;;;;;;;2.07;1.67;;;;;;;17.90;44.31;99445.19;6150672;23;20406;-81
2023/03/19 11:27:02;;;;;;;1.73;1.47;;;;;;;17.86;44.10;99435.81;6151104;23;20405;-82
2023/03/19 11:29:28;;;;;;;1.57;1.47;;;;;;;17.79;43.96;99432.06;6150275;23;20383;-80
2023/03/19 11:32:07;;;;;;;3.83;1.60;;;;;;;17.75;44.13;99441.31;6147116;23;20616;-80
2023/03/19 11:34:47;;;;;;;1.50;1.40;;;;;;;17.74;44.13;99429.00;6145928;23;20398;-80
2023/03/19 11:37:27;;;;;;;3.73;1.50;;;;;;;17.77;44.08;99425.19;6143708;23;20402;-80
2023/03/19 11:40:19;;;;;;;2.17;1.90;;;;;;;17.76;44.38;99424.38;6146595;23;20433;-80
2023/03/19 11:43:02;;;;;;;1.70;1.60;;;;;;;17.80;44.42;99420.47;6147530;23;20415;-80
2023/03/19 11:45:34;;;;;;;2.33;1.70;;;;;;;17.82;44.22;99417.66;6148384;23;20390;-80